Time;durP1;ratioP1;P1;durP2;ratioP2;P2;SDS_P1;SDS_P2;PMS_P1;PMS_P2;Temp;Humidity;BMP_temperature;BMP_pressure;BME280_temperature;BME280_humidity;BME280_pressure;Samples;Min_cycle;Max_cycle;Signal;HPM_P1;HPM_P2
2022/11/25 00:00:24;;;;;;;72.97;32.90;;;;;;;8.32;79.44;99058.35;4098195;85;28508;-85
2022/11/25 00:06:31;;;;;;;71.07;29.00;;;;;;;8.22;79.96;99061.52;4092706;85;28605;-83
2022/11/25 00:12:33;;;;;;;70.95;30.65;;;;;;;8.18;79.95;99065.67;4107782;85;28511;-85
2022/11/25 00:18:35;;;;;;;69.22;29.27;;;;;;;8.49;78.70;99069.39;4076923;85;28563;-82
2022/11/25 00:24:36;;;;;;;65.85;28.15;;;;;;;8.47;78.83;99068.77;4092258;85;28517;-80
2022/11/25 00:30:37;;;;;;;70.92;29.92;;;;;;;8.29;80.19;99072.19;4122676;84;28665;-83
2022/11/25 00:36:39;;;;;;;70.87;29.90;;;;;;;8.45;79.70;99084.25;4140003;84;28523;-83
2022/11/25 00:49:00;;;;;;;59.83;26.97;;;;;;;8.28;80.87;99084.77;4120555;84;28507;-84
2022/11/25 00:55:03;;;;;;;61.35;26.40;;;;;;;8.31;80.71;99089.69;4116294;84;28487;-85
2022/11/25 01:01:05;;;;;;;67.62;27.82;;;;;;;8.31;80.30;99088.35;4111810;83;28576;-84
2022/11/25 01:07:08;;;;;;;58.80;27.60;;;;;;;8.37;80.32;99092.83;4170154;83;28555;-84
2022/11/25 01:13:09;;;;;;;59.53;26.02;;;;;;;8.48;79.67;99094.02;4114983;85;28563;-83
2022/11/25 01:19:11;;;;;;;53.95;25.02;;;;;;;8.38;79.59;99099.02;4133327;83;28482;-83
2022/11/25 01:25:13;;;;;;;58.95;25.27;;;;;;;8.18;80.40;99099.15;4151672;83;28514;-82
2022/11/25 01:31:18;;;;;;;56.98;25.45;;;;;;;8.27;81.03;99099.17;4028285;85;28625;-82
2022/11/25 01:37:20;;;;;;;38.67;18.23;;;;;;;8.33;80.15;99101.01;4030491;86;28730;-83
2022/11/25 01:43:21;;;;;;;55.33;24.98;;;;;;;8.32;80.15;99097.20;3996577;87;32130;-83
2022/11/25 01:49:40;;;;;;;59.55;25.00;;;;;;;8.28;80.39;99095.99;4028668;86;28591;-83
2022/11/25 01:55:47;;;;;;;54.83;24.72;;;;;;;8.53;79.77;99100.10;4032127;87;28529;-82
2022/11/25 02:01:49;;;;;;;50.75;23.47;;;;;;;8.47;78.85;99099.08;4062003;86;28622;-84
2022/11/25 02:07:53;;;;;;;54.77;24.23;;;;;;;8.45;78.83;99094.96;4025473;86;28501;-84
2022/11/25 02:13:55;;;;;;;57.83;24.25;;;;;;;8.25;80.46;99088.39;4014175;86;28503;-84
2022/11/25 02:20:14;;;;;;;53.58;24.40;;;;;;;8.28;80.00;99086.11;4032150;86;28566;-85
2022/11/25 02:26:17;;;;;;;52.20;23.12;;;;;;;8.21;80.45;99083.45;4042660;86;28563;-85
2022/11/25 02:32:21;;;;;;;55.43;23.65;;;;;;;8.11;80.89;99094.33;4087946;84;28543;-85
2022/11/25 02:38:50;;;;;;;56.80;24.20;;;;;;;8.35;80.71;99099.47;4107972;84;28597;-81
2022/11/25 02:44:51;;;;;;;54.38;25.05;;;;;;;8.21;82.30;99094.70;3949433;88;28539;-81
2022/11/25 02:50:53;;;;;;;61.05;26.75;;;;;;;8.29;82.04;99088.26;4078688;84;28575;-81
2022/11/25 02:56:54;;;;;;;56.28;25.08;;;;;;;8.76;79.37;99092.00;4123051;84;28532;-82
2022/11/25 03:02:55;;;;;;;51.13;23.10;;;;;;;8.72;78.86;99098.31;4116742;84;28625;-82
2022/11/25 03:08:57;;;;;;;58.52;24.15;;;;;;;8.73;78.24;99091.91;4130430;84;28527;-82
2022/11/25 03:14:58;;;;;;;50.75;22.05;;;;;;;8.54;78.37;99091.02;4121852;84;28522;-81
2022/11/25 03:20:59;;;;;;;45.10;21.07;;;;;;;8.53;78.41;99092.06;4098105;84;28491;-83
2022/11/25 03:27:01;;;;;;;46.70;20.52;;;;;;;8.47;79.10;99087.02;4139500;84;28488;-85
2022/11/25 03:33:03;;;;;;;42.95;18.98;;;;;;;8.53;79.14;99092.56;4067500;84;28548;-85
2022/11/25 03:39:05;;;;;;;42.95;19.85;;;;;;;8.43;79.91;99089.81;4052062;85;28577;-86
2022/11/25 03:45:11;;;;;;;45.50;20.65;;;;;;;8.57;80.34;99110.67;4057130;85;28588;-86
2022/11/25 03:51:14;;;;;;;43.87;19.98;;;;;;;8.69;79.50;99108.64;4063571;85;28471;-86
2022/11/25 03:57:16;;;;;;;50.52;20.97;;;;;;;8.87;78.97;99118.64;4079085;84;28560;-83
2022/11/25 04:03:17;;;;;;;48.35;20.37;;;;;;;8.91;79.11;99123.35;4057108;85;28625;-83
2022/11/25 04:09:19;;;;;;;45.30;19.55;;;;;;;8.82;80.07;99120.62;4022495;85;28551;-85
2022/11/25 04:15:20;;;;;;;42.65;19.40;;;;;;;9.00;79.34;99123.89;4038110;86;28568;-85
2022/11/25 04:21:24;;;;;;;42.25;19.67;;;;;;;9.03;78.88;99121.30;4025876;86;28524;-86
2022/11/25 04:27:26;;;;;;;46.42;21.07;;;;;;;8.96;80.20;99128.56;4054605;86;28517;-85
2022/11/25 04:33:27;;;;;;;39.80;19.15;;;;;;;9.28;78.06;99127.16;4093448;84;28554;-86
2022/11/25 04:39:29;;;;;;;36.55;18.25;;;;;;;9.15;78.15;99130.27;4133328;85;28579;-82
2022/11/25 04:45:32;;;;;;;38.05;17.75;;;;;;;9.22;78.69;99132.89;4056795;85;28488;-86
2022/11/25 04:51:33;;;;;;;36.63;17.50;;;;;;;9.14;79.28;99143.89;4133884;84;28500;-85
2022/11/25 04:57:37;;;;;;;36.00;17.80;;;;;;;9.08;79.41;99145.59;4160759;84;28591;-83
2022/11/25 05:03:39;;;;;;;37.85;18.02;;;;;;;9.12;79.64;99157.54;4147998;84;28522;-85
2022/11/25 05:09:40;;;;;;;35.10;16.87;;;;;;;9.04;80.01;99153.78;4084887;84;28501;-84
2022/11/25 05:15:44;;;;;;;33.33;16.25;;;;;;;9.11;79.23;99158.58;4162194;84;28518;-84
2022/11/25 05:21:47;;;;;;;32.53;16.07;;;;;;;9.01;79.92;99167.09;4146077;84;28502;-83
2022/11/25 05:27:48;;;;;;;38.33;18.05;;;;;;;9.03;79.80;99169.58;4142312;84;28510;-84
2022/11/25 05:33:50;;;;;;;35.05;17.40;;;;;;;9.10;79.68;99179.71;4177136;83;28606;-85
2022/11/25 05:39:52;;;;;;;35.52;17.20;;;;;;;9.01;79.81;99177.83;4191871;83;28516;-83
2022/11/25 05:46:13;;;;;;;37.73;18.05;;;;;;;9.03;80.60;99181.11;4186479;83;28461;-83
2022/11/25 05:52:16;;;;;;;38.85;18.73;;;;;;;9.03;80.58;99191.03;4182150;83;28508;-81
2022/11/25 05:58:19;;;;;;;44.98;19.90;;;;;;;8.87;81.60;99191.03;4139810;85;28503;-89
2022/11/25 06:04:22;;;;;;;49.65;22.17;;;;;;;9.10;81.41;99203.84;4178788;83;28525;-87
2022/11/25 06:10:24;;;;;;;42.65;20.60;;;;;;;9.33;79.84;99208.64;4192724;84;28564;-84
2022/11/25 06:16:27;;;;;;;45.88;21.30;;;;;;;9.25;80.56;99214.27;4194089;83;28479;-86
2022/11/25 06:22:30;;;;;;;44.03;22.32;;;;;;;9.26;80.69;99217.25;4103758;85;28524;-85
2022/11/25 06:28:32;;;;;;;44.08;21.17;;;;;;;9.37;79.91;99223.78;4132511;84;28611;-86
2022/11/25 06:34:35;;;;;;;47.45;22.87;;;;;;;9.41;79.91;99218.27;4134509;84;28512;-89
2022/11/25 06:40:38;;;;;;;48.60;23.67;;;;;;;9.61;79.90;99215.44;4163894;84;28563;-89
2022/11/25 06:46:39;;;;;;;50.55;23.45;;;;;;;9.59;79.41;99224.74;4134995;84;28510;-90
2022/11/25 06:52:41;;;;;;;51.35;23.25;;;;;;;9.64;78.42;99228.94;4130707;84;28543;-82
2022/11/25 06:58:43;;;;;;;48.95;23.65;;;;;;;9.66;78.82;99228.20;4159181;84;28494;-82
2022/11/25 07:04:45;;;;;;;51.25;25.20;;;;;;;9.74;78.12;99225.23;4153252;84;28553;-86
2022/11/25 07:10:46;;;;;;;46.45;22.82;;;;;;;9.79;78.35;99235.83;4157221;84;28553;-84
2022/11/25 07:16:48;;;;;;;54.42;25.82;;;;;;;9.59;79.58;99237.66;4153525;84;28477;-86
2022/11/25 07:22:49;;;;;;;58.55;25.88;;;;;;;9.69;79.69;99233.11;4151533;84;28585;-86
2022/11/25 07:28:52;;;;;;;55.98;26.20;;;;;;;9.77;79.01;99229.32;4155700;84;28478;-87
2022/11/25 07:34:54;;;;;;;61.60;27.82;;;;;;;9.96;78.69;99247.65;4106638;85;28542;-87
2022/11/25 07:40:55;;;;;;;60.90;28.12;;;;;;;10.05;77.99;99245.48;4101684;85;28509;-88
2022/11/25 07:46:57;;;;;;;70.35;30.68;;;;;;;10.12;77.64;99250.78;4070021;85;28763;-89
2022/11/25 07:52:58;;;;;;;69.97;30.15;;;;;;;10.22;77.34;99255.11;3987040;88;28536;-87
2022/11/25 07:59:00;;;;;;;77.53;32.08;;;;;;;10.18;77.55;99254.73;3994793;88;28491;-88
2022/11/25 08:05:02;;;;;;;79.82;32.33;;;;;;;10.11;79.02;99266.09;3991497;89;28481;-88
2022/11/25 08:11:09;;;;;;;83.25;31.15;;;;;;;10.14;79.39;99277.73;3987281;89;28584;-89
2022/11/25 08:17:10;;;;;;;76.60;29.82;;;;;;;10.16;79.00;99286.39;3986051;88;28565;-90
2022/11/25 08:23:12;;;;;;;77.92;30.82;;;;;;;10.16;79.92;99284.23;3980400;88;28580;-89
2022/11/25 08:29:17;;;;;;;73.17;30.95;;;;;;;10.20;79.36;99277.36;4009559;87;29225;-89
2022/11/25 08:35:19;;;;;;;76.50;30.27;;;;;;;10.14;80.31;99288.98;4091829;85;28488;-88
2022/11/25 08:41:26;;;;;;;69.97;29.52;;;;;;;10.13;80.33;99288.69;4109040;85;28528;-86
2022/11/25 08:47:27;;;;;;;63.02;27.70;;;;;;;9.94;82.02;99297.25;4090926;85;28551;-90
2022/11/25 08:53:29;;;;;;;65.20;28.85;;;;;;;10.16;81.64;99293.11;4125404;84;28525;-92
2022/11/25 08:59:30;;;;;;;65.97;29.35;;;;;;;10.25;80.16;99304.38;4101398;86;28506;-90
2022/11/25 09:05:34;;;;;;;62.40;27.40;;;;;;;10.36;80.30;99302.83;4105873;85;28550;-92
2022/11/25 09:11:41;;;;;;;59.15;26.70;;;;;;;10.44;79.20;99303.08;4108210;85;28556;-90
2022/11/25 09:17:41;;;;;;;54.58;26.68;;;;;;;10.39;79.26;99308.29;4101880;85;28557;-89
2022/11/25 09:23:42;;;;;;;55.50;26.37;;;;;;;10.57;79.55;99311.02;4094909;85;28537;-88
2022/11/25 09:29:53;;;;;;;53.60;25.23;;;;;;;10.67;78.89;99317.20;4109415;85;28493;-89
2022/11/25 09:36:00;;;;;;;57.80;26.87;;;;;;;10.52;80.49;99315.42;4102105;85;28517;-89
2022/11/25 09:48:48;;;;;;;51.33;25.48;;;;;;;10.81;82.42;99315.17;4041968;86;28578;-89
2022/11/25 09:55:01;;;;;;;48.63;25.50;;;;;;;11.05;80.70;99316.63;4021580;86;28488;-88
2022/11/25 10:01:13;;;;;;;63.13;29.35;;;;;;;11.24;80.33;99315.25;4053793;86;28511;-88
2022/11/25 10:07:22;;;;;;;57.50;29.05;;;;;;;11.54;80.05;99307.67;4043190;86;28579;-89
2022/11/25 10:13:30;;;;;;;64.42;30.43;;;;;;;11.82;76.45;99304.31;4023408;86;28579;-84
2022/11/25 10:19:48;;;;;;;64.15;30.82;;;;;;;11.88;77.42;99302.56;4039730;86;28495;-83
2022/11/25 10:25:54;;;;;;;62.17;30.62;;;;;;;12.01;76.43;99304.21;4028494;86;28524;-83
2022/11/25 10:32:19;;;;;;;61.37;31.07;;;;;;;11.95;75.80;99309.17;4035538;86;28609;-83
2022/11/25 10:38:58;;;;;;;64.70;32.88;;;;;;;11.89;76.44;99320.36;3989313;88;28563;-83
2022/11/25 10:44:59;;;;;;;68.97;31.87;;;;;;;11.97;77.19;99322.72;3996860;87;28574;-83
2022/11/25 10:51:19;;;;;;;70.22;32.53;;;;;;;12.12;75.64;99318.24;3975942;88;28520;-82
2022/11/25 10:57:22;;;;;;;65.52;32.98;;;;;;;12.33;74.94;99316.01;3981101;87;28565;-81
2022/11/25 11:03:25;;;;;;;70.28;33.83;;;;;;;12.25;75.48;99325.80;3954223;88;28612;-82
2022/11/25 11:09:39;;;;;;;70.70;33.95;;;;;;;12.76;73.69;99329.30;3996189;87;28573;-86
2022/11/25 11:15:46;;;;;;;78.95;38.25;;;;;;;12.47;73.35;99322.49;3977580;88;28574;-82
2022/11/25 11:21:49;;;;;;;64.77;33.33;;;;;;;12.65;73.21;99316.13;3975879;87;28532;-85
2022/11/25 11:27:50;;;;;;;71.92;34.45;;;;;;;12.36;74.76;99324.16;3996770;87;28570;-86
2022/11/25 11:34:12;;;;;;;72.97;36.05;;;;;;;12.74;73.75;99321.44;4008455;86;28476;-85
2022/11/25 11:40:37;;;;;;;74.87;35.55;;;;;;;12.89;73.56;99319.58;4003192;87;28539;-83
2022/11/25 11:47:09;;;;;;;72.35;33.83;;;;;;;13.32;72.50;99320.13;4034307;86;28508;-87
2022/11/25 11:53:37;;;;;;;73.85;35.80;;;;;;;12.98;72.34;99298.45;4038428;86;28618;-88
2022/11/25 11:59:58;;;;;;;67.62;33.48;;;;;;;13.22;72.36;99317.24;4038709;86;28580;-90
2022/11/25 12:06:03;;;;;;;67.70;35.10;;;;;;;13.35;71.79;99318.28;4040140;86;28541;-88
2022/11/25 12:12:11;;;;;;;78.90;39.67;;;;;;;13.64;71.57;99322.33;4037053;86;28499;-86
2022/11/25 12:18:30;;;;;;;72.65;37.45;;;;;;;13.90;70.65;99323.28;4026627;86;28566;-87
2022/11/25 12:25:05;;;;;;;75.10;37.40;;;;;;;13.98;69.88;99326.93;4036019;86;28544;-84
2022/11/25 12:31:32;;;;;;;73.47;37.53;;;;;;;14.03;69.22;99327.55;4029692;86;28558;-85
2022/11/25 12:38:06;;;;;;;71.47;36.05;;;;;;;13.88;69.18;99340.28;4018565;85;28542;-84
2022/11/25 12:44:36;;;;;;;68.05;35.35;;;;;;;13.73;69.35;99340.30;4038751;86;29050;-85
2022/11/25 12:51:01;;;;;;;69.62;36.15;;;;;;;13.57;69.82;99339.77;4040770;86;28570;-85
2022/11/25 12:57:30;;;;;;;67.75;35.10;;;;;;;13.50;69.77;99341.27;4019487;86;28574;-84
2022/11/25 13:04:24;;;;;;;66.97;35.80;;;;;;;13.51;70.28;99332.91;4022272;86;28482;-84
2022/11/25 13:11:16;;;;;;;66.00;34.35;;;;;;;13.36;70.00;99336.13;4040675;87;28594;-83
2022/11/25 13:17:18;;;;;;;63.33;33.60;;;;;;;13.30;70.90;99336.27;4039564;86;28524;-84
2022/11/25 13:23:27;;;;;;;67.37;33.83;;;;;;;13.38;70.27;99335.89;4040923;86;28577;-84
2022/11/25 13:29:43;;;;;;;67.70;34.43;;;;;;;13.43;70.54;99342.72;3967666;88;28546;-85
2022/11/25 13:35:53;;;;;;;67.62;34.78;;;;;;;13.48;71.15;99346.08;4042837;86;28543;-86
2022/11/25 13:42:15;;;;;;;63.58;33.33;;;;;;;13.19;72.60;99350.94;4062641;86;28472;-85
2022/11/25 13:48:22;;;;;;;66.62;34.15;;;;;;;13.27;73.00;99351.07;4087724;86;28491;-84
2022/11/25 13:54:47;;;;;;;62.38;32.53;;;;;;;13.27;73.04;99357.02;4093604;86;28562;-84
2022/11/25 14:01:01;;;;;;;55.28;29.45;;;;;;;13.16;72.72;99355.98;4060086;86;28539;-84
2022/11/25 14:07:17;;;;;;;54.42;30.17;;;;;;;13.04;72.42;99358.75;4086389;86;28550;-81
2022/11/25 14:13:44;;;;;;;57.08;29.87;;;;;;;13.14;72.50;99363.00;4071881;86;28503;-83
2022/11/25 14:20:03;;;;;;;51.08;27.73;;;;;;;12.99;73.63;99359.98;3987429;88;28512;-86
2022/11/25 14:26:14;;;;;;;53.60;28.02;;;;;;;12.83;74.21;99361.03;3937245;89;28547;-86
2022/11/25 14:32:24;;;;;;;52.45;27.85;;;;;;;12.68;74.81;99366.92;4053882;85;28516;-84
2022/11/25 14:38:31;;;;;;;51.55;28.02;;;;;;;12.61;75.37;99372.45;4089053;85;28554;-86
2022/11/25 14:44:48;;;;;;;50.95;27.55;;;;;;;12.62;75.13;99380.83;4053997;86;28603;-88
2022/11/25 14:51:06;;;;;;;49.20;26.62;;;;;;;12.53;76.60;99375.49;4052869;87;28531;-85
2022/11/25 14:57:08;;;;;;;49.20;26.42;;;;;;;12.48;77.52;99380.76;4058130;86;28496;-89
2022/11/25 15:03:16;;;;;;;53.42;28.20;;;;;;;12.43;78.23;99384.70;4068912;86;28545;-86
2022/11/25 15:09:25;;;;;;;53.10;26.73;;;;;;;12.45;78.56;99387.98;4046756;86;28599;-90
2022/11/25 15:15:27;;;;;;;47.25;25.60;;;;;;;12.39;79.23;99385.70;4032428;86;29017;-88
2022/11/25 15:28:16;;;;;;;48.30;25.77;;;;;;;12.23;80.17;99386.67;4048072;85;28574;-90
2022/11/25 15:34:18;;;;;;;;;;;;;;;12.28;80.04;99392.71;4076150;86;28553;-93
2022/11/25 15:40:39;;;;;;;46.02;25.72;;;;;;;12.03;81.19;99395.61;4090878;85;20742;-91
2022/11/25 15:47:06;;;;;;;47.53;25.60;;;;;;;12.08;81.33;99403.33;4097965;85;28558;-91
2022/11/25 15:53:12;;;;;;;58.63;29.45;;;;;;;12.03;82.58;99405.87;4087369;85;28535;-91
2022/11/25 15:59:56;;;;;;;63.83;32.17;;;;;;;11.85;83.84;99406.21;4092721;85;28718;-91
2022/11/25 16:06:01;;;;;;;58.80;29.40;;;;;;;12.13;81.66;99411.52;4094892;85;28557;-91
2022/11/25 16:12:11;;;;;;;72.67;36.63;;;;;;;11.95;81.87;99408.36;4121219;84;28542;-91
2022/11/25 16:18:39;;;;;;;75.08;35.30;;;;;;;11.91;82.41;99413.09;4092482;85;28531;-93
2022/11/25 16:31:12;;;;;;;75.28;35.75;;;;;;;11.96;80.93;99414.04;3928576;88;28569;-93
2022/11/25 16:37:14;;;;;;;55.58;29.07;;;;;;;11.73;82.18;99418.83;3874838;87;28502;-88
2022/11/25 16:43:23;;;;;;;71.87;34.20;;;;;;;11.87;81.77;99414.07;4016782;87;28507;-87
2022/11/25 16:49:38;;;;;;;61.80;30.85;;;;;;;11.81;82.08;99408.25;4002336;87;28588;-92
2022/11/25 16:55:50;;;;;;;78.12;36.80;;;;;;;11.62;82.88;99420.45;4005129;88;28527;-89
2022/11/25 17:02:41;;;;;;;82.12;37.28;;;;;;;11.13;88.02;99427.16;4017304;87;28559;-91
2022/11/25 17:08:42;;;;;;;85.87;37.98;;;;;;;11.55;85.61;99425.09;4018823;87;28523;-87
2022/11/25 17:14:47;;;;;;;86.02;40.35;;;;;;;11.36;85.35;99435.89;4021914;87;28623;-88
2022/11/25 17:20:48;;;;;;;69.58;34.98;;;;;;;11.62;84.54;99440.65;3962523;88;28539;-88
2022/11/25 17:26:58;;;;;;;81.75;38.75;;;;;;;11.69;83.30;99439.20;3985254;87;28628;-87
2022/11/25 17:33:09;;;;;;;80.72;38.00;;;;;;;11.52;83.68;99443.87;4016671;87;28599;-86
2022/11/25 17:39:13;;;;;;;83.85;39.80;;;;;;;11.53;83.45;99444.16;4027537;87;28594;-88
2022/11/25 17:45:23;;;;;;;92.37;42.38;;;;;;;11.16;85.46;99449.06;4017151;87;28548;-86
2022/11/25 17:51:23;;;;;;;88.25;41.73;;;;;;;11.06;85.96;99456.84;4011612;87;28484;-85
2022/11/25 17:57:27;;;;;;;74.80;35.25;;;;;;;11.34;84.29;99446.07;4004110;87;28515;-86
2022/11/25 18:03:28;;;;;;;66.90;33.28;;;;;;;11.73;81.34;99457.89;3996306;87;28511;-86
2022/11/25 18:09:29;;;;;;;69.80;34.92;;;;;;;11.67;80.38;99462.86;3964571;87;28541;-83
2022/11/25 18:15:32;;;;;;;67.25;33.40;;;;;;;11.34;82.72;99470.30;4006997;87;28535;-81
2022/11/25 18:21:36;;;;;;;89.95;41.30;;;;;;;11.15;83.38;99482.95;3944775;88;28589;-84
2022/11/25 18:27:38;;;;;;;84.07;39.88;;;;;;;11.24;86.50;99488.84;4035769;87;28535;-84
2022/11/25 18:33:39;;;;;;;75.40;37.08;;;;;;;11.44;84.05;99495.33;4026378;85;28540;-84
2022/11/25 18:39:41;;;;;;;79.67;38.20;;;;;;;11.34;83.18;99492.34;4043930;86;28533;-85
2022/11/25 18:45:45;;;;;;;79.72;37.63;;;;;;;11.64;82.79;99499.14;4045207;86;28612;-84
2022/11/25 18:51:48;;;;;;;73.83;35.58;;;;;;;11.74;82.69;99501.28;4063635;86;28505;-81
2022/11/25 18:57:51;;;;;;;76.67;35.90;;;;;;;11.70;82.23;99494.72;4074435;85;28672;-86
2022/11/25 19:03:54;;;;;;;75.22;36.70;;;;;;;11.68;82.60;99504.36;4074159;85;28534;-83
2022/11/25 19:09:56;;;;;;;72.75;34.92;;;;;;;11.62;83.48;99507.14;4112796;85;28527;-82
2022/11/25 19:16:12;;;;;;;55.20;28.10;;;;;;;11.89;81.49;99509.50;4136317;85;28554;-84
2022/11/25 19:22:17;;;;;;;66.85;32.53;;;;;;;11.67;83.54;99507.30;4136047;85;28588;-83
2022/11/25 19:28:23;;;;;;;62.48;31.15;;;;;;;11.79;83.02;99515.41;4125311;85;28514;-85
2022/11/25 19:34:44;;;;;;;60.90;30.77;;;;;;;11.80;82.92;99521.94;4076109;85;28628;-84
2022/11/25 19:40:48;;;;;;;53.70;27.40;;;;;;;11.61;84.88;99531.92;3968587;88;28479;-84
2022/11/25 19:46:50;;;;;;;50.58;25.92;;;;;;;11.79;84.84;99527.53;3952044;88;28510;-83
2022/11/25 19:52:53;;;;;;;47.13;24.70;;;;;;;11.85;84.57;99539.57;3976600;88;28588;-85
2022/11/25 19:58:55;;;;;;;38.45;19.87;;;;;;;11.77;84.78;99526.95;3960230;88;28581;-85
2022/11/25 20:04:57;;;;;;;38.08;19.70;;;;;;;11.71;85.33;99520.59;4037410;87;28539;-84
2022/11/25 20:10:58;;;;;;;40.40;21.95;;;;;;;11.79;84.58;99526.19;4021176;87;28589;-82
2022/11/25 20:17:00;;;;;;;38.63;21.73;;;;;;;11.91;83.89;99537.03;4028835;87;28551;-80
2022/11/25 20:23:09;;;;;;;44.20;24.63;;;;;;;11.72;84.90;99559.95;4010402;88;28532;-81
2022/11/25 20:29:17;;;;;;;44.10;24.30;;;;;;;11.87;83.54;99556.87;3950830;88;28536;-82
2022/11/25 20:35:20;;;;;;;52.67;27.98;;;;;;;11.73;83.82;99568.33;3984278;86;28553;-81
2022/11/25 20:41:22;;;;;;;51.83;28.95;;;;;;;11.81;83.29;99557.25;4041583;86;28545;-83
2022/11/25 20:47:26;;;;;;;47.80;26.50;;;;;;;11.77;83.64;99566.01;4101764;85;28568;-81
2022/11/25 20:53:30;;;;;;;42.85;24.20;;;;;;;11.44;84.93;99572.06;4025272;86;28509;-81
2022/11/25 20:59:33;;;;;;;45.00;25.02;;;;;;;11.51;84.85;99570.67;4103392;85;28593;-81
2022/11/25 21:05:34;;;;;;;47.95;25.17;;;;;;;11.39;85.65;99573.27;4101695;85;28572;-81
2022/11/25 21:11:37;;;;;;;41.68;24.15;;;;;;;11.53;85.12;99580.15;4062718;86;28564;-82
2022/11/25 21:17:39;;;;;;;45.00;23.95;;;;;;;11.28;85.70;99578.34;3973235;87;28542;-83
2022/11/25 21:23:41;;;;;;;46.13;26.15;;;;;;;11.32;84.80;99584.11;4038997;86;28514;-83
2022/11/25 21:29:45;;;;;;;47.55;26.68;;;;;;;11.40;83.85;99587.03;4033113;86;28631;-82
2022/11/25 21:35:53;;;;;;;49.45;26.97;;;;;;;11.22;84.75;99593.22;4037478;86;28587;-81
2022/11/25 21:41:55;;;;;;;53.63;28.10;;;;;;;11.07;84.64;99586.30;4033183;86;28581;-81
2022/11/25 21:47:56;;;;;;;51.45;27.62;;;;;;;11.12;84.45;99597.23;4031638;86;28627;-82
2022/11/25 21:53:58;;;;;;;48.60;26.62;;;;;;;11.11;84.79;99598.79;4040448;86;28523;-81
2022/11/25 22:00:00;;;;;;;46.08;26.68;;;;;;;10.80;87.57;99601.33;4044623;86;28522;-81
2022/11/25 22:06:01;;;;;;;49.83;27.17;;;;;;;10.93;87.38;99603.61;4049140;86;28555;-82
2022/11/25 22:12:04;;;;;;;47.13;26.30;;;;;;;10.61;88.64;99599.07;4032982;86;28562;-78
2022/11/25 22:18:14;;;;;;;47.15;26.87;;;;;;;10.84;87.63;99609.25;4043118;86;28559;-81
2022/11/25 22:24:18;;;;;;;49.53;27.22;;;;;;;10.85;87.25;99610.90;4035417;86;28547;-79
2022/11/25 22:30:21;;;;;;;47.90;25.95;;;;;;;10.81;87.11;99613.73;4018567;86;28561;-81
2022/11/25 22:36:36;;;;;;;45.23;26.20;;;;;;;10.87;86.01;99614.19;4058812;86;28627;-81
2022/11/25 22:42:39;;;;;;;51.33;27.90;;;;;;;10.78;86.66;99615.53;4063296;86;28527;-80
2022/11/25 22:48:41;;;;;;;49.08;27.10;;;;;;;10.81;86.89;99621.80;4110560;85;28534;-82
2022/11/25 22:54:42;;;;;;;48.58;26.25;;;;;;;10.89;86.57;99624.73;4122968;85;28629;-85
2022/11/25 23:00:46;;;;;;;48.28;25.92;;;;;;;10.90;86.86;99623.70;4119794;85;28504;-85
2022/11/25 23:06:48;;;;;;;47.43;26.82;;;;;;;10.93;85.64;99623.78;4124226;85;28595;-87
2022/11/25 23:12:50;;;;;;;49.55;27.73;;;;;;;10.99;85.21;99635.83;4121775;85;28593;-85
2022/11/25 23:18:53;;;;;;;50.45;27.40;;;;;;;10.61;89.48;99638.06;4073113;85;28528;-86
2022/11/25 23:24:54;;;;;;;42.62;24.90;;;;;;;10.59;89.25;99642.33;4084424;85;28554;-84
2022/11/25 23:30:59;;;;;;;54.15;28.07;;;;;;;10.70;88.35;99644.02;4100668;85;28566;-87
2022/11/25 23:37:01;;;;;;;52.15;29.30;;;;;;;11.00;87.44;99654.97;4072688;85;28497;-88
2022/11/25 23:43:04;;;;;;;52.78;28.50;;;;;;;11.09;88.54;99657.39;4024184;86;28604;-88
2022/11/25 23:49:10;;;;;;;53.65;28.57;;;;;;;10.74;88.37;99653.30;4102824;85;28520;-88
2022/11/25 23:55:19;;;;;;;43.80;24.77;;;;;;;11.02;87.46;99650.19;4096543;85;28531;-88
